sensor_id;sensor_type;location;lat;lon;timestamp;pressure;altitude;pressure_sealevel;temperature;humidity
10470;BME280;5282;47.052;15.458;2023-02-21T00:01:16;97642.09;;;4.19;100.00
10470;BME280;5282;47.052;15.458;2023-02-21T00:04:03;97639.88;;;4.24;100.00
10470;BME280;5282;47.052;15.458;2023-02-21T00:06:47;97639.88;;;4.24;100.00
10470;BME280;5282;47.052;15.458;2023-02-21T00:09:32;97644.00;;;4.28;100.00
10470;BME280;5282;47.052;15.458;2023-02-21T00:12:19;97639.88;;;4.24;100.00
10470;BME280;5282;47.052;15.458;2023-02-21T00:15:04;97637.44;;;4.21;100.00
10470;BME280;5282;47.052;15.458;2023-02-21T00:17:49;97636.88;;;4.06;100.00
10470;BME280;5282;47.052;15.458;2023-02-21T00:20:35;97641.16;;;3.86;100.00
10470;BME280;5282;47.052;15.458;2023-02-21T00:23:19;97634.97;;;3.97;100.00
10470;BME280;5282;47.052;15.458;2023-02-21T00:26:03;97642.59;;;4.01;100.00
10470;BME280;5282;47.052;15.458;2023-02-21T00:28:48;97635.72;;;3.65;100.00
10470;BME280;5282;47.052;15.458;2023-02-21T00:31:32;97643.34;;;3.58;100.00
10470;BME280;5282;47.052;15.458;2023-02-21T00:34:17;97641.41;;;3.60;100.00
10470;BME280;5282;47.052;15.458;2023-02-21T00:37:03;97642.38;;;3.25;100.00
10470;BME280;5282;47.052;15.458;2023-02-21T00:39:47;97639.22;;;3.43;100.00
10470;BME280;5282;47.052;15.458;2023-02-21T00:42:32;97635.81;;;3.29;100.00
10470;BME280;5282;47.052;15.458;2023-02-21T00:45:19;97627.97;;;3.39;100.00
10470;BME280;5282;47.052;15.458;2023-02-21T00:48:04;97627.44;;;3.11;100.00
10470;BME280;5282;47.052;15.458;2023-02-21T00:50:49;97623.06;;;2.87;100.00
10470;BME280;5282;47.052;15.458;2023-02-21T00:53:35;97624.69;;;3.13;100.00
10470;BME280;5282;47.052;15.458;2023-02-21T00:56:19;97627.56;;;2.98;100.00
10470;BME280;5282;47.052;15.458;2023-02-21T00:59:03;97622.63;;;3.16;100.00
10470;BME280;5282;47.052;15.458;2023-02-21T01:01:48;97618.88;;;3.30;100.00
10470;BME280;5282;47.052;15.458;2023-02-21T01:04:32;97628.94;;;3.27;100.00
10470;BME280;5282;47.052;15.458;2023-02-21T01:07:17;97632.66;;;3.13;100.00
10470;BME280;5282;47.052;15.458;2023-02-21T01:10:03;97628.94;;;3.27;100.00
10470;BME280;5282;47.052;15.458;2023-02-21T01:12:48;97625.28;;;3.05;100.00
10470;BME280;5282;47.052;15.458;2023-02-21T01:15:32;97624.50;;;2.91;100.00
10470;BME280;5282;47.052;15.458;2023-02-21T01:18:16;97624.75;;;3.00;100.00
10470;BME280;5282;47.052;15.458;2023-02-21T01:21:00;97622.34;;;2.97;100.00
10470;BME280;5282;47.052;15.458;2023-02-21T01:23:45;97627.22;;;2.67;100.00
10470;BME280;5282;47.052;15.458;2023-02-21T01:26:31;97623.69;;;2.91;100.00
10470;BME280;5282;47.052;15.458;2023-02-21T01:29:16;97614.13;;;3.00;100.00
10470;BME280;5282;47.052;15.458;2023-02-21T01:32:00;97620.09;;;2.68;100.00
10470;BME280;5282;47.052;15.458;2023-02-21T01:34:44;97619.50;;;2.75;100.00
10470;BME280;5282;47.052;15.458;2023-02-21T01:37:29;97601.13;;;2.72;100.00
10470;BME280;5282;47.052;15.458;2023-02-21T01:40:14;97602.06;;;2.60;100.00
10470;BME280;5282;47.052;15.458;2023-02-21T01:42:59;97597.47;;;2.62;100.00
10470;BME280;5282;47.052;15.458;2023-02-21T01:45:49;97598.25;;;2.75;100.00
10470;BME280;5282;47.052;15.458;2023-02-21T01:48:41;97593.78;;;2.76;100.00
10470;BME280;5282;47.052;15.458;2023-02-21T01:51:30;97597.28;;;2.76;100.00
10470;BME280;5282;47.052;15.458;2023-02-21T01:54:17;97596.09;;;2.81;100.00
10470;BME280;5282;47.052;15.458;2023-02-21T01:57:03;97595.84;;;2.84;100.00
10470;BME280;5282;47.052;15.458;2023-02-21T01:59:50;97583.03;;;2.89;100.00
10470;BME280;5282;47.052;15.458;2023-02-21T02:02:43;97582.28;;;2.75;100.00
10470;BME280;5282;47.052;15.458;2023-02-21T02:05:31;97586.06;;;2.49;100.00
10470;BME280;5282;47.052;15.458;2023-02-21T02:08:17;97582.19;;;2.88;100.00
10470;BME280;5282;47.052;15.458;2023-02-21T02:11:12;97573.88;;;2.93;100.00
10470;BME280;5282;47.052;15.458;2023-02-21T02:14:15;97575.75;;;2.68;100.00
10470;BME280;5282;47.052;15.458;2023-02-21T02:16:55;97569.69;;;2.66;100.00
10470;BME280;5282;47.052;15.458;2023-02-21T02:19:45;97573.56;;;2.73;100.00
10470;BME280;5282;47.052;15.458;2023-02-21T02:22:46;97573.00;;;2.92;100.00
10470;BME280;5282;47.052;15.458;2023-02-21T02:25:34;97572.28;;;2.90;100.00
10470;BME280;5282;47.052;15.458;2023-02-21T02:28:32;97573.38;;;2.88;100.00
10470;BME280;5282;47.052;15.458;2023-02-21T02:31:27;97573.84;;;2.82;100.00
10470;BME280;5282;47.052;15.458;2023-02-21T02:34:23;97570.72;;;2.88;100.00
10470;BME280;5282;47.052;15.458;2023-02-21T02:36:56;97576.41;;;2.95;100.00
10470;BME280;5282;47.052;15.458;2023-02-21T02:39:30;97580.59;;;2.74;100.00
10470;BME280;5282;47.052;15.458;2023-02-21T02:42:04;97577.88;;;2.99;100.00
10470;BME280;5282;47.052;15.458;2023-02-21T02:44:36;97582.44;;;2.85;100.00
10470;BME280;5282;47.052;15.458;2023-02-21T02:47:08;97580.53;;;2.99;100.00
10470;BME280;5282;47.052;15.458;2023-02-21T02:49:40;97575.22;;;2.99;100.00
10470;BME280;5282;47.052;15.458;2023-02-21T02:52:09;97576.75;;;2.78;100.00
10470;BME280;5282;47.052;15.458;2023-02-21T02:54:37;97580.13;;;2.81;100.00
10470;BME280;5282;47.052;15.458;2023-02-21T02:57:06;97575.31;;;2.97;100.00
10470;BME280;5282;47.052;15.458;2023-02-21T02:59:39;97569.41;;;2.93;100.00
10470;BME280;5282;47.052;15.458;2023-02-21T03:02:33;97575.81;;;2.91;100.00
10470;BME280;5282;47.052;15.458;2023-02-21T03:05:23;97567.09;;;2.89;100.00
10470;BME280;5282;47.052;15.458;2023-02-21T03:07:58;97574.63;;;2.59;100.00
10470;BME280;5282;47.052;15.458;2023-02-21T03:10:37;97570.53;;;2.67;100.00
10470;BME280;5282;47.052;15.458;2023-02-21T03:13:12;97571.69;;;2.87;100.00
10470;BME280;5282;47.052;15.458;2023-02-21T03:15:46;97569.00;;;2.87;100.00
10470;BME280;5282;47.052;15.458;2023-02-21T03:18:20;97577.72;;;2.77;100.00
10470;BME280;5282;47.052;15.458;2023-02-21T03:20:55;97581.53;;;2.62;100.00
10470;BME280;5282;47.052;15.458;2023-02-21T03:23:25;97572.81;;;2.60;100.00
10470;BME280;5282;47.052;15.458;2023-02-21T03:25:56;97566.88;;;2.56;100.00
10470;BME280;5282;47.052;15.458;2023-02-21T03:28:25;97566.44;;;2.62;100.00
10470;BME280;5282;47.052;15.458;2023-02-21T03:30:55;97557.25;;;2.78;100.00
10470;BME280;5282;47.052;15.458;2023-02-21T03:33:22;97571.91;;;2.37;100.00
10470;BME280;5282;47.052;15.458;2023-02-21T03:35:51;97559.00;;;2.43;100.00
10470;BME280;5282;47.052;15.458;2023-02-21T03:38:19;97564.50;;;2.65;100.00
10470;BME280;5282;47.052;15.458;2023-02-21T03:40:45;97563.78;;;2.62;100.00
10470;BME280;5282;47.052;15.458;2023-02-21T03:43:12;97546.59;;;2.67;100.00
10470;BME280;5282;47.052;15.458;2023-02-21T03:45:39;97553.19;;;2.38;100.00
10470;BME280;5282;47.052;15.458;2023-02-21T03:48:06;97562.66;;;2.54;100.00
10470;BME280;5282;47.052;15.458;2023-02-21T03:50:33;97552.19;;;2.64;100.00
10470;BME280;5282;47.052;15.458;2023-02-21T03:53:02;97546.59;;;2.55;100.00
10470;BME280;5282;47.052;15.458;2023-02-21T03:55:29;97552.25;;;2.51;100.00
10470;BME280;5282;47.052;15.458;2023-02-21T03:57:56;97558.47;;;2.62;100.00
10470;BME280;5282;47.052;15.458;2023-02-21T04:00:23;97542.16;;;2.67;100.00
10470;BME280;5282;47.052;15.458;2023-02-21T04:02:50;97550.84;;;2.58;100.00
10470;BME280;5282;47.052;15.458;2023-02-21T04:05:17;97552.16;;;2.52;100.00
10470;BME280;5282;47.052;15.458;2023-02-21T04:07:43;97551.31;;;2.63;100.00
10470;BME280;5282;47.052;15.458;2023-02-21T04:10:12;97546.97;;;2.62;100.00
10470;BME280;5282;47.052;15.458;2023-02-21T04:12:39;97547.69;;;2.64;100.00
10470;BME280;5282;47.052;15.458;2023-02-21T04:15:07;97556.66;;;2.74;100.00
10470;BME280;5282;47.052;15.458;2023-02-21T04:17:34;97552.38;;;2.49;100.00
10470;BME280;5282;47.052;15.458;2023-02-21T04:20:04;97552.38;;;2.49;100.00
10470;BME280;5282;47.052;15.458;2023-02-21T04:22:31;97544.53;;;2.59;100.00
10470;BME280;5282;47.052;15.458;2023-02-21T04:24:58;97546.13;;;2.61;100.00
10470;BME280;5282;47.052;15.458;2023-02-21T04:27:28;97536.84;;;2.67;100.00
10470;BME280;5282;47.052;15.458;2023-02-21T04:29:55;97554.09;;;2.26;100.00
10470;BME280;5282;47.052;15.458;2023-02-21T04:32:22;97542.34;;;2.53;100.00
10470;BME280;5282;47.052;15.458;2023-02-21T04:34:49;97529.00;;;2.30;100.00
10470;BME280;5282;47.052;15.458;2023-02-21T04:37:17;97538.97;;;2.51;100.00
10470;BME280;5282;47.052;15.458;2023-02-21T04:39:44;97548.25;;;2.45;100.00
10470;BME280;5282;47.052;15.458;2023-02-21T04:42:11;97554.94;;;2.62;100.00
10470;BME280;5282;47.052;15.458;2023-02-21T04:44:39;97544.94;;;2.30;100.00
10470;BME280;5282;47.052;15.458;2023-02-21T04:47:06;97542.81;;;2.35;100.00
10470;BME280;5282;47.052;15.458;2023-02-21T04:49:33;97534.31;;;2.30;100.00
10470;BME280;5282;47.052;15.458;2023-02-21T04:52:00;97535.22;;;2.18;100.00
10470;BME280;5282;47.052;15.458;2023-02-21T04:54:27;97527.69;;;2.36;100.00
10470;BME280;5282;47.052;15.458;2023-02-21T04:56:54;97536.00;;;2.31;100.00
10470;BME280;5282;47.052;15.458;2023-02-21T04:59:20;97546.03;;;2.27;100.00
10470;BME280;5282;47.052;15.458;2023-02-21T05:01:49;97526.69;;;2.25;100.00
10470;BME280;5282;47.052;15.458;2023-02-21T05:04:16;97526.84;;;2.35;100.00
10470;BME280;5282;47.052;15.458;2023-02-21T05:06:43;97534.69;;;2.01;100.00
10470;BME280;5282;47.052;15.458;2023-02-21T05:09:10;97531.78;;;2.04;100.00
10470;BME280;5282;47.052;15.458;2023-02-21T05:11:36;97526.09;;;1.97;100.00
10470;BME280;5282;47.052;15.458;2023-02-21T05:14:03;97530.28;;;1.89;100.00
10470;BME280;5282;47.052;15.458;2023-02-21T05:16:30;97525.03;;;2.00;100.00
10470;BME280;5282;47.052;15.458;2023-02-21T05:18:59;97526.34;;;1.94;100.00
10470;BME280;5282;47.052;15.458;2023-02-21T05:21:33;97524.06;;;2.01;100.00
10470;BME280;5282;47.052;15.458;2023-02-21T05:24:00;97515.75;;;2.06;100.00
10470;BME280;5282;47.052;15.458;2023-02-21T05:26:33;97533.38;;;1.82;100.00
10470;BME280;5282;47.052;15.458;2023-02-21T05:29:01;97533.84;;;1.76;100.00
10470;BME280;5282;47.052;15.458;2023-02-21T05:31:29;97519.44;;;1.92;100.00
10470;BME280;5282;47.052;15.458;2023-02-21T05:33:58;97519.97;;;1.60;100.00
10470;BME280;5282;47.052;15.458;2023-02-21T05:36:26;97523.38;;;1.62;100.00
10470;BME280;5282;47.052;15.458;2023-02-21T05:38:54;97527.06;;;1.72;100.00
10470;BME280;5282;47.052;15.458;2023-02-21T05:41:21;97526.81;;;1.51;100.00
10470;BME280;5282;47.052;15.458;2023-02-21T05:43:48;97518.47;;;1.68;100.00
10470;BME280;5282;47.052;15.458;2023-02-21T05:46:21;97523.25;;;1.39;100.00
10470;BME280;5282;47.052;15.458;2023-02-21T05:48:49;97523.50;;;1.60;100.00
10470;BME280;5282;47.052;15.458;2023-02-21T05:51:17;97548.44;;;1.58;100.00
10470;BME280;5282;47.052;15.458;2023-02-21T05:53:45;97529.09;;;1.68;100.00
10470;BME280;5282;47.052;15.458;2023-02-21T05:56:12;97529.53;;;1.62;100.00
10470;BME280;5282;47.052;15.458;2023-02-21T05:58:39;97534.75;;;1.64;100.00
10470;BME280;5282;47.052;15.458;2023-02-21T06:01:06;97542.59;;;1.65;100.00
10470;BME280;5282;47.052;15.458;2023-02-21T06:03:33;97539.03;;;1.53;100.00
10470;BME280;5282;47.052;15.458;2023-02-21T06:06:00;97543.03;;;1.59;100.00
10470;BME280;5282;47.052;15.458;2023-02-21T06:08:29;97539.72;;;1.56;100.00
10470;BME280;5282;47.052;15.458;2023-02-21T06:10:56;97539.03;;;1.53;100.00
10470;BME280;5282;47.052;15.458;2023-02-21T06:13:23;97536.78;;;1.60;100.00
10470;BME280;5282;47.052;15.458;2023-02-21T06:15:50;97531.34;;;1.62;100.00
10470;BME280;5282;47.052;15.458;2023-02-21T06:18:17;97542.97;;;1.48;100.00
10470;BME280;5282;47.052;15.458;2023-02-21T06:20:43;97538.50;;;1.48;100.00
10470;BME280;5282;47.052;15.458;2023-02-21T06:23:10;97551.06;;;1.33;100.00
10470;BME280;5282;47.052;15.458;2023-02-21T06:25:39;97548.00;;;1.27;100.00
10470;BME280;5282;47.052;15.458;2023-02-21T06:28:05;97540.72;;;1.54;100.00
10470;BME280;5282;47.052;15.458;2023-02-21T06:30:32;97554.00;;;1.54;100.00
10470;BME280;5282;47.052;15.458;2023-02-21T06:32:59;97554.00;;;1.79;100.00
10470;BME280;5282;47.052;15.458;2023-02-21T06:35:26;97550.06;;;1.84;100.00
10470;BME280;5282;47.052;15.458;2023-02-21T06:37:53;97550.78;;;1.87;100.00
10470;BME280;5282;47.052;15.458;2023-02-21T06:40:20;97544.53;;;1.88;100.00
10470;BME280;5282;47.052;15.458;2023-02-21T06:42:48;97561.16;;;1.65;100.00
10470;BME280;5282;47.052;15.458;2023-02-21T06:45:15;97558.97;;;1.83;100.00
10470;BME280;5282;47.052;15.458;2023-02-21T06:47:42;97559.84;;;1.84;100.00
10470;BME280;5282;47.052;15.458;2023-02-21T06:50:09;97559.38;;;2.14;100.00
10470;BME280;5282;47.052;15.458;2023-02-21T06:52:36;97566.03;;;1.96;100.00
10470;BME280;5282;47.052;15.458;2023-02-21T06:55:04;97577.25;;;2.12;100.00
10470;BME280;5282;47.052;15.458;2023-02-21T06:57:31;97573.75;;;2.47;100.00
10470;BME280;5282;47.052;15.458;2023-02-21T06:59:59;97571.69;;;2.40;100.00
10470;BME280;5282;47.052;15.458;2023-02-21T07:02:26;97569.66;;;2.55;100.00
10470;BME280;5282;47.052;15.458;2023-02-21T07:04:53;97562.97;;;2.85;100.00
10470;BME280;5282;47.052;15.458;2023-02-21T07:07:20;97578.56;;;2.89;100.00
10470;BME280;5282;47.052;15.458;2023-02-21T07:09:46;97567.59;;;3.17;100.00
10470;BME280;5282;47.052;15.458;2023-02-21T07:12:13;97555.00;;;3.30;100.00
10470;BME280;5282;47.052;15.458;2023-02-21T07:14:40;97566.53;;;3.31;100.00
10470;BME280;5282;47.052;15.458;2023-02-21T07:17:08;97569.28;;;3.52;100.00
10470;BME280;5282;47.052;15.458;2023-02-21T07:19:35;97565.19;;;3.59;100.00
10470;BME280;5282;47.052;15.458;2023-02-21T07:22:02;97569.50;;;3.83;100.00
10470;BME280;5282;47.052;15.458;2023-02-21T07:24:30;97562.69;;;3.90;100.00
10470;BME280;5282;47.052;15.458;2023-02-21T07:26:57;97575.63;;;3.95;100.00
10470;BME280;5282;47.052;15.458;2023-02-21T07:29:24;97574.00;;;4.15;100.00
10470;BME280;5282;47.052;15.458;2023-02-21T07:31:51;97569.38;;;4.28;100.00
10470;BME280;5282;47.052;15.458;2023-02-21T07:34:19;97571.50;;;4.35;100.00
10470;BME280;5282;47.052;15.458;2023-02-21T07:36:47;97565.28;;;4.45;100.00
10470;BME280;5282;47.052;15.458;2023-02-21T07:39:14;97575.81;;;4.47;100.00
10470;BME280;5282;47.052;15.458;2023-02-21T07:41:41;97567.50;;;4.61;100.00
10470;BME280;5282;47.052;15.458;2023-02-21T07:44:08;97562.56;;;4.78;100.00
10470;BME280;5282;47.052;15.458;2023-02-21T07:46:35;97568.94;;;4.87;100.00
10470;BME280;5282;47.052;15.458;2023-02-21T07:49:02;97561.59;;;5.00;100.00
10470;BME280;5282;47.052;15.458;2023-02-21T07:51:31;97562.06;;;5.15;100.00
10470;BME280;5282;47.052;15.458;2023-02-21T07:53:57;97562.84;;;5.27;100.00
10470;BME280;5282;47.052;15.458;2023-02-21T07:56:24;97566.81;;;5.33;100.00
10470;BME280;5282;47.052;15.458;2023-02-21T07:58:51;97567.81;;;5.41;100.00
10470;BME280;5282;47.052;15.458;2023-02-21T08:01:21;97567.59;;;5.54;100.00
10470;BME280;5282;47.052;15.458;2023-02-21T08:03:49;97564.69;;;5.67;100.00
10470;BME280;5282;47.052;15.458;2023-02-21T08:06:16;97558.13;;;5.91;100.00
10470;BME280;5282;47.052;15.458;2023-02-21T08:08:45;97545.06;;;5.98;100.00
10470;BME280;5282;47.052;15.458;2023-02-21T08:11:12;97562.44;;;6.13;100.00
10470;BME280;5282;47.052;15.458;2023-02-21T08:13:38;97557.94;;;6.24;100.00
10470;BME280;5282;47.052;15.458;2023-02-21T08:16:07;97559.06;;;6.31;95.67
10470;BME280;5282;47.052;15.458;2023-02-21T08:18:34;97564.00;;;6.45;92.09
10470;BME280;5282;47.052;15.458;2023-02-21T08:21:02;97553.00;;;6.58;90.19
10470;BME280;5282;47.052;15.458;2023-02-21T08:23:31;97565.66;;;6.76;86.60
10470;BME280;5282;47.052;15.458;2023-02-21T08:25:59;97555.38;;;6.91;86.96
10470;BME280;5282;47.052;15.458;2023-02-21T08:28:26;97563.66;;;7.07;83.38
10470;BME280;5282;47.052;15.458;2023-02-21T08:30:53;97559.38;;;7.24;82.25
10470;BME280;5282;47.052;15.458;2023-02-21T08:33:20;97568.59;;;7.40;77.71
10470;BME280;5282;47.052;15.458;2023-02-21T08:35:47;97571.53;;;7.56;78.25
10470;BME280;5282;47.052;15.458;2023-02-21T08:38:14;97568.44;;;7.79;77.41
10470;BME280;5282;47.052;15.458;2023-02-21T08:40:41;97569.78;;;7.93;76.15
10470;BME280;5282;47.052;15.458;2023-02-21T08:43:09;97568.41;;;8.07;76.41
10470;BME280;5282;47.052;15.458;2023-02-21T08:45:36;97565.75;;;8.25;74.52
10470;BME280;5282;47.052;15.458;2023-02-21T08:48:03;97556.34;;;8.39;78.17
10470;BME280;5282;47.052;15.458;2023-02-21T08:50:30;97560.06;;;8.56;78.31
10470;BME280;5282;47.052;15.458;2023-02-21T08:52:58;97559.34;;;8.72;78.11
10470;BME280;5282;47.052;15.458;2023-02-21T08:55:25;97560.69;;;8.94;79.87
10470;BME280;5282;47.052;15.458;2023-02-21T08:57:53;97559.59;;;9.05;78.72
10470;BME280;5282;47.052;15.458;2023-02-21T09:00:23;97558.22;;;9.27;78.82
10470;BME280;5282;47.052;15.458;2023-02-21T09:02:53;97557.13;;;9.38;72.55
10470;BME280;5282;47.052;15.458;2023-02-21T09:05:23;97566.13;;;9.64;71.82
10470;BME280;5282;47.052;15.458;2023-02-21T09:07:52;97561.88;;;9.87;69.86
10470;BME280;5282;47.052;15.458;2023-02-21T09:10:24;97564.97;;;10.09;68.90
10470;BME280;5282;47.052;15.458;2023-02-21T09:12:51;97568.41;;;10.36;66.39
10470;BME280;5282;47.052;15.458;2023-02-21T09:15:18;97560.72;;;10.58;64.24
10470;BME280;5282;47.052;15.458;2023-02-21T09:17:46;97561.06;;;10.63;63.54
10470;BME280;5282;47.052;15.458;2023-02-21T09:20:19;97553.84;;;10.80;60.63
10470;BME280;5282;47.052;15.458;2023-02-21T09:22:46;97562.38;;;11.00;58.86
10470;BME280;5282;47.052;15.458;2023-02-21T09:25:15;97567.28;;;11.13;59.05
10470;BME280;5282;47.052;15.458;2023-02-21T09:27:42;97561.50;;;11.49;55.64
10470;BME280;5282;47.052;15.458;2023-02-21T09:30:11;97569.25;;;11.36;56.54
10470;BME280;5282;47.052;15.458;2023-02-21T09:32:39;97565.19;;;11.48;57.05
10470;BME280;5282;47.052;15.458;2023-02-21T09:35:08;97560.69;;;11.80;53.55
10470;BME280;5282;47.052;15.458;2023-02-21T09:37:36;97561.47;;;11.97;53.46
10470;BME280;5282;47.052;15.458;2023-02-21T09:40:06;97561.28;;;12.07;51.95
10470;BME280;5282;47.052;15.458;2023-02-21T09:42:37;97551.34;;;12.31;50.89
10470;BME280;5282;47.052;15.458;2023-02-21T09:45:12;97555.03;;;12.38;50.18
10470;BME280;5282;47.052;15.458;2023-02-21T09:47:40;97556.19;;;12.44;48.67
10470;BME280;5282;47.052;15.458;2023-02-21T09:50:13;97543.66;;;12.74;47.73
10470;BME280;5282;47.052;15.458;2023-02-21T09:52:41;97551.34;;;13.01;46.90
10470;BME280;5282;47.052;15.458;2023-02-21T09:55:14;97550.59;;;13.07;45.97
10470;BME280;5282;47.052;15.458;2023-02-21T09:57:47;97553.50;;;13.44;47.06
10470;BME280;5282;47.052;15.458;2023-02-21T10:00:18;97560.16;;;13.18;48.20
10470;BME280;5282;47.052;15.458;2023-02-21T10:02:56;97559.19;;;13.64;48.22
10470;BME280;5282;47.052;15.458;2023-02-21T10:05:38;97550.13;;;13.86;48.23
10470;BME280;5282;47.052;15.458;2023-02-21T10:08:15;97551.16;;;14.37;46.15
10470;BME280;5282;47.052;15.458;2023-02-21T10:10:46;97554.44;;;13.96;45.23
10470;BME280;5282;47.052;15.458;2023-02-21T10:13:33;97557.94;;;14.48;46.17
10470;BME280;5282;47.052;15.458;2023-02-21T10:16:06;97559.75;;;14.77;42.45
10470;BME280;5282;47.052;15.458;2023-02-21T10:18:38;97556.59;;;15.02;40.52
10470;BME280;5282;47.052;15.458;2023-02-21T10:21:16;97559.31;;;14.80;38.63
10470;BME280;5282;47.052;15.458;2023-02-21T10:23:49;97554.91;;;15.23;37.78
10470;BME280;5282;47.052;15.458;2023-02-21T10:26:20;97554.25;;;15.49;36.35
10470;BME280;5282;47.052;15.458;2023-02-21T10:28:49;97557.44;;;15.60;36.19
10470;BME280;5282;47.052;15.458;2023-02-21T10:31:20;97556.25;;;16.04;35.84
10470;BME280;5282;47.052;15.458;2023-02-21T10:33:49;97551.84;;;16.03;36.46
10470;BME280;5282;47.052;15.458;2023-02-21T10:36:20;97552.19;;;16.35;35.25
10470;BME280;5282;47.052;15.458;2023-02-21T10:38:53;97540.94;;;16.45;36.56
10470;BME280;5282;47.052;15.458;2023-02-21T10:41:21;97544.16;;;16.89;35.57
10470;BME280;5282;47.052;15.458;2023-02-21T10:43:52;97549.75;;;16.80;34.31
10470;BME280;5282;47.052;15.458;2023-02-21T10:46:24;97539.78;;;17.15;34.87
10470;BME280;5282;47.052;15.458;2023-02-21T10:48:58;97543.53;;;17.40;32.65
10470;BME280;5282;47.052;15.458;2023-02-21T10:51:31;97535.59;;;17.12;33.47
10470;BME280;5282;47.052;15.458;2023-02-21T10:54:16;97537.66;;;16.90;34.20
10470;BME280;5282;47.052;15.458;2023-02-21T10:56:44;97528.22;;;17.60;32.85
10470;BME280;5282;47.052;15.458;2023-02-21T10:59:19;97531.81;;;17.53;33.62
10470;BME280;5282;47.052;15.458;2023-02-21T11:01:47;97522.63;;;17.21;33.51
10470;BME280;5282;47.052;15.458;2023-02-21T11:04:24;97522.47;;;17.95;33.91
10470;BME280;5282;47.052;15.458;2023-02-21T11:06:56;97511.97;;;18.44;32.92
10470;BME280;5282;47.052;15.458;2023-02-21T11:09:36;97514.38;;;18.27;31.69
10470;BME280;5282;47.052;15.458;2023-02-21T11:12:11;97513.44;;;18.46;32.35
10470;BME280;5282;47.052;15.458;2023-02-21T11:14:44;97511.88;;;18.89;31.24
10470;BME280;5282;47.052;15.458;2023-02-21T11:17:14;97510.63;;;19.42;31.20
10470;BME280;5282;47.052;15.458;2023-02-21T11:19:45;97504.53;;;19.40;31.01
10470;BME280;5282;47.052;15.458;2023-02-21T11:22:14;97497.59;;;18.62;30.04
10470;BME280;5282;47.052;15.458;2023-02-21T11:24:50;97501.63;;;18.85;29.99
10470;BME280;5282;47.052;15.458;2023-02-21T11:27:18;97504.16;;;18.86;29.96
10470;BME280;5282;47.052;15.458;2023-02-21T11:29:48;97487.59;;;19.57;29.55
10470;BME280;5282;47.052;15.458;2023-02-21T11:32:22;97485.97;;;19.49;29.96
10470;BME280;5282;47.052;15.458;2023-02-21T11:34:50;97485.16;;;19.86;29.15
10470;BME280;5282;47.052;15.458;2023-02-21T11:37:19;97485.53;;;20.08;29.08
10470;BME280;5282;47.052;15.458;2023-02-21T11:39:49;97486.53;;;20.14;28.56
10470;BME280;5282;47.052;15.458;2023-02-21T11:42:25;97483.06;;;20.07;28.70
10470;BME280;5282;47.052;15.458;2023-02-21T11:45:10;97478.00;;;20.22;27.21
10470;BME280;5282;47.052;15.458;2023-02-21T11:47:44;97479.16;;;20.45;27.13
10470;BME280;5282;47.052;15.458;2023-02-21T11:50:20;97468.91;;;20.83;26.50
10470;BME280;5282;47.052;15.458;2023-02-21T11:52:58;97471.47;;;20.65;27.79
10470;BME280;5282;47.052;15.458;2023-02-21T11:55:27;97463.84;;;20.86;27.86
10470;BME280;5282;47.052;15.458;2023-02-21T11:58:08;97458.38;;;20.56;27.82
10470;BME280;5282;47.052;15.458;2023-02-21T12:00:46;97462.78;;;19.96;27.69
10470;BME280;5282;47.052;15.458;2023-02-21T12:03:50;97454.47;;;20.63;27.32
10470;BME280;5282;47.052;15.458;2023-02-21T12:06:27;97450.63;;;20.41;26.76
10470;BME280;5282;47.052;15.458;2023-02-21T12:09:01;97446.25;;;20.21;26.64
10470;BME280;5282;47.052;15.458;2023-02-21T12:11:37;97439.78;;;20.88;26.49
10470;BME280;5282;47.052;15.458;2023-02-21T12:14:33;97433.41;;;20.64;25.90
10470;BME280;5282;47.052;15.458;2023-02-21T12:17:13;97438.00;;;20.40;26.19
10470;BME280;5282;47.052;15.458;2023-02-21T12:19:57;97421.06;;;20.73;27.54
10470;BME280;5282;47.052;15.458;2023-02-21T12:22:49;97428.09;;;21.52;26.68
10470;BME280;5282;47.052;15.458;2023-02-21T12:25:24;97424.53;;;21.64;26.20
10470;BME280;5282;47.052;15.458;2023-02-21T12:28:01;97420.63;;;21.36;26.33
10470;BME280;5282;47.052;15.458;2023-02-21T12:30:55;97423.81;;;21.68;25.90
10470;BME280;5282;47.052;15.458;2023-02-21T12:33:36;97411.53;;;21.71;25.44
10470;BME280;5282;47.052;15.458;2023-02-21T12:36:16;97407.13;;;21.70;25.00
10470;BME280;5282;47.052;15.458;2023-02-21T12:38:52;97395.81;;;21.66;24.50
10470;BME280;5282;47.052;15.458;2023-02-21T12:44:15;97401.34;;;21.31;24.21
10470;BME280;5282;47.052;15.458;2023-02-21T12:46:50;97398.28;;;20.91;23.50
10470;BME280;5282;47.052;15.458;2023-02-21T12:49:23;97394.13;;;20.89;23.50
10470;BME280;5282;47.052;15.458;2023-02-21T12:51:55;97394.31;;;20.63;23.68
10470;BME280;5282;47.052;15.458;2023-02-21T12:54:37;97387.88;;;21.41;24.23
10470;BME280;5282;47.052;15.458;2023-02-21T12:57:11;97385.34;;;21.63;22.85
10470;BME280;5282;47.052;15.458;2023-02-21T12:59:54;97387.38;;;21.68;23.23
10470;BME280;5282;47.052;15.458;2023-02-21T13:02:31;97378.22;;;21.62;22.24
10470;BME280;5282;47.052;15.458;2023-02-21T13:05:05;97379.13;;;21.80;22.80
10470;BME280;5282;47.052;15.458;2023-02-21T13:07:41;97369.22;;;22.08;22.91
10470;BME280;5282;47.052;15.458;2023-02-21T13:10:15;97370.22;;;22.18;23.57
10470;BME280;5282;47.052;15.458;2023-02-21T13:12:48;97362.84;;;22.19;22.53
10470;BME280;5282;47.052;15.458;2023-02-21T13:15:19;97359.19;;;22.13;22.03
10470;BME280;5282;47.052;15.458;2023-02-21T13:17:57;97361.31;;;21.41;21.92
10470;BME280;5282;47.052;15.458;2023-02-21T13:20:29;97360.47;;;21.65;22.65
10470;BME280;5282;47.052;15.458;2023-02-21T13:22:59;97350.34;;;21.94;22.02
10470;BME280;5282;47.052;15.458;2023-02-21T13:25:35;97347.53;;;22.06;21.42
10470;BME280;5282;47.052;15.458;2023-02-21T13:28:11;97349.47;;;21.24;21.25
10470;BME280;5282;47.052;15.458;2023-02-21T13:30:45;97352.00;;;21.66;21.99
10470;BME280;5282;47.052;15.458;2023-02-21T13:33:28;97347.47;;;21.07;22.28
10470;BME280;5282;47.052;15.458;2023-02-21T13:36:00;97354.34;;;21.34;22.25